createdAt,value
2022-11-27T00:01:38.998Z,58.64
2022-11-27T00:04:08.152Z,58.64
2022-11-27T00:06:37.034Z,58.65
2022-11-27T00:09:08.329Z,58.64
2022-11-27T00:11:36.983Z,58.69
2022-11-27T00:14:12.575Z,58.68
2022-11-27T00:16:43.328Z,58.62
2022-11-27T00:19:11.711Z,58.41
2022-11-27T00:21:39.589Z,58.70
2022-11-27T00:24:08.577Z,58.63
2022-11-27T00:26:38.083Z,58.54
2022-11-27T00:29:06.766Z,58.50
2022-11-27T00:31:35.269Z,58.55
2022-11-27T00:34:04.642Z,58.58
2022-11-27T00:36:33.741Z,58.54
2022-11-27T00:39:01.095Z,58.43
2022-11-27T00:41:30.510Z,58.46
2022-11-27T00:43:58.681Z,58.49
2022-11-27T00:46:29.544Z,58.42
2022-11-27T00:49:01.845Z,58.53
2022-11-27T00:51:29.422Z,58.47
2022-11-27T00:53:56.928Z,58.64
2022-11-27T00:56:26.769Z,58.59
2022-11-27T00:58:54.684Z,58.42
2022-11-27T01:01:28.120Z,58.52
2022-11-27T01:03:59.013Z,58.37
2022-11-27T01:06:27.345Z,58.48
2022-11-27T01:08:55.087Z,58.40
2022-11-27T01:11:28.834Z,58.26
2022-11-27T01:13:57.968Z,58.35
2022-11-27T01:16:27.557Z,58.26
2022-11-27T01:19:00.762Z,58.32
2022-11-27T01:21:30.561Z,58.22
2022-11-27T01:23:57.613Z,58.31
2022-11-27T01:26:25.301Z,58.26
2022-11-27T01:28:54.194Z,58.27
2022-11-27T01:31:26.632Z,58.30
2022-11-27T01:33:56.464Z,58.35
2022-11-27T01:36:24.018Z,58.36
2022-11-27T01:38:51.287Z,58.28
2022-11-27T01:41:28.053Z,58.36
2022-11-27T01:44:01.665Z,58.43
2022-11-27T01:46:34.746Z,58.40
2022-11-27T01:49:10.839Z,58.30
2022-11-27T01:51:43.400Z,58.25
2022-11-27T01:54:11.004Z,58.34
2022-11-27T01:56:40.851Z,58.35
2022-11-27T01:59:08.275Z,58.32
2022-11-27T02:01:35.392Z,58.30
2022-11-27T02:04:02.922Z,58.28
2022-11-27T02:06:30.026Z,58.08
2022-11-27T02:08:57.303Z,58.23
2022-11-27T02:11:40.628Z,58.13
2022-11-27T02:14:18.526Z,58.01
2022-11-27T02:16:58.256Z,58.13
2022-11-27T02:20:01.344Z,58.05
2022-11-27T02:22:52.565Z,57.92
2022-11-27T02:25:38.135Z,57.86
2022-11-27T02:28:34.962Z,57.86
2022-11-27T02:31:38.361Z,57.95
2022-11-27T02:34:35.354Z,57.84
2022-11-27T02:37:22.868Z,57.74
2022-11-27T02:40:12.128Z,57.69
2022-11-27T02:43:10.613Z,57.85
2022-11-27T02:45:44.377Z,57.66
2022-11-27T02:48:15.165Z,57.77
2022-11-27T02:50:44.849Z,57.65
2022-11-27T02:53:17.534Z,57.70
2022-11-27T02:55:46.375Z,57.63
2022-11-27T02:58:17.014Z,57.53
2022-11-27T03:00:47.038Z,57.68
2022-11-27T03:03:20.318Z,57.72
2022-11-27T03:05:51.024Z,57.66
2022-11-27T03:08:22.619Z,57.55
2022-11-27T03:11:11.037Z,57.63
2022-11-27T03:13:49.174Z,57.52
2022-11-27T03:16:43.633Z,57.58
2022-11-27T03:19:33.779Z,57.61
2022-11-27T03:22:02.338Z,57.64
2022-11-27T03:24:32.254Z,57.57
2022-11-27T03:26:59.910Z,57.62
2022-11-27T03:29:35.358Z,57.57
2022-11-27T03:32:03.226Z,57.46
2022-11-27T03:34:31.292Z,57.59
2022-11-27T03:36:58.238Z,57.48
2022-11-27T03:39:26.523Z,57.62
2022-11-27T03:42:15.656Z,57.63
2022-11-27T03:44:49.841Z,57.69
2022-11-27T03:47:38.168Z,57.67
2022-11-27T03:50:33.662Z,57.82
2022-11-27T03:53:19.958Z,57.81
2022-11-27T03:56:14.554Z,57.77
2022-11-27T03:58:46.826Z,57.89
2022-11-27T04:01:17.393Z,58.00
2022-11-27T04:03:44.450Z,58.00
2022-11-27T04:06:12.084Z,57.79
2022-11-27T04:08:39.832Z,57.80
2022-11-27T04:11:07.077Z,57.86
2022-11-27T04:13:34.154Z,57.85
2022-11-27T04:16:02.421Z,57.96
2022-11-27T04:18:30.063Z,57.95
2022-11-27T04:20:57.424Z,57.93
2022-11-27T04:23:24.367Z,57.93
2022-11-27T04:25:51.409Z,57.88
2022-11-27T04:28:18.780Z,57.92
2022-11-27T04:30:50.733Z,57.89
2022-11-27T04:33:17.710Z,57.92
2022-11-27T04:35:44.712Z,57.88
2022-11-27T04:38:12.884Z,57.97
2022-11-27T04:40:39.792Z,57.87
2022-11-27T04:43:07.078Z,57.92
2022-11-27T04:45:34.163Z,57.87
2022-11-27T04:48:01.228Z,57.86
2022-11-27T04:50:28.421Z,57.88
2022-11-27T04:52:55.435Z,57.63
2022-11-27T04:55:22.679Z,57.76
2022-11-27T04:57:49.832Z,57.66
2022-11-27T05:00:17.110Z,57.61
2022-11-27T05:02:44.069Z,57.52
2022-11-27T05:05:11.241Z,57.53
2022-11-27T05:07:38.319Z,57.49
2022-11-27T05:10:07.134Z,57.60
2022-11-27T05:12:34.127Z,57.55
2022-11-27T05:15:04.371Z,57.65
2022-11-27T05:17:32.112Z,57.52
2022-11-27T05:19:59.057Z,57.56
2022-11-27T05:22:26.107Z,57.50
2022-11-27T05:24:53.047Z,57.57
2022-11-27T05:27:20.016Z,57.70
2022-11-27T05:29:47.248Z,57.55
2022-11-27T05:32:14.299Z,57.67
2022-11-27T05:34:41.388Z,57.63
2022-11-27T05:37:08.596Z,57.81
2022-11-27T05:39:35.849Z,57.74
2022-11-27T05:42:03.074Z,57.85
2022-11-27T05:44:30.045Z,58.00
2022-11-27T05:46:57.508Z,57.99
2022-11-27T05:49:24.657Z,58.05
2022-11-27T05:51:52.055Z,57.99
2022-11-27T05:54:19.781Z,58.00
2022-11-27T05:56:47.137Z,58.03
2022-11-27T05:59:14.799Z,58.15
2022-11-27T06:01:41.790Z,58.16
2022-11-27T06:04:08.830Z,58.16
2022-11-27T06:06:35.840Z,58.13
2022-11-27T06:09:05.695Z,58.06
2022-11-27T06:11:35.056Z,58.27
2022-11-27T06:14:01.895Z,58.16
2022-11-27T06:16:28.849Z,58.20
2022-11-27T06:18:56.605Z,58.17
2022-11-27T06:21:24.570Z,58.22
2022-11-27T06:23:56.560Z,58.27
2022-11-27T06:26:31.647Z,58.29
2022-11-27T06:29:00.665Z,58.27
2022-11-27T06:31:30.934Z,58.13
2022-11-27T06:33:59.048Z,58.34
2022-11-27T06:36:36.627Z,58.17
2022-11-27T06:39:05.616Z,58.18
2022-11-27T06:41:33.636Z,58.21
2022-11-27T06:44:01.768Z,58.39
2022-11-27T06:46:30.311Z,58.30
2022-11-27T06:48:58.628Z,58.42
2022-11-27T06:51:27.957Z,58.46
2022-11-27T06:53:55.174Z,58.30
2022-11-27T06:56:24.983Z,58.15
2022-11-27T06:58:53.736Z,58.18
2022-11-27T07:01:21.986Z,58.05
2022-11-27T07:03:49.221Z,58.00
2022-11-27T07:06:19.961Z,57.87
2022-11-27T07:08:47.161Z,57.86
2022-11-27T07:11:20.492Z,57.94
2022-11-27T07:13:48.987Z,57.94
2022-11-27T07:16:17.631Z,57.80
2022-11-27T07:18:47.173Z,57.62
2022-11-27T07:21:14.746Z,57.57
2022-11-27T07:23:41.951Z,57.60
2022-11-27T07:26:18.291Z,57.53
2022-11-27T07:28:46.337Z,57.51
2022-11-27T07:31:15.879Z,57.66
2022-11-27T07:33:43.092Z,57.52
2022-11-27T07:36:16.279Z,57.52
2022-11-27T07:38:44.027Z,57.50
2022-11-27T07:41:11.879Z,57.58
2022-11-27T07:43:39.987Z,57.62
2022-11-27T07:46:09.517Z,57.72
2022-11-27T07:48:36.846Z,57.82
2022-11-27T07:51:08.705Z,57.81
2022-11-27T07:53:38.489Z,57.77
2022-11-27T07:56:07.010Z,57.91
2022-11-27T07:58:34.967Z,57.81
2022-11-27T08:01:06.920Z,57.83
2022-11-27T08:03:34.536Z,57.96
2022-11-27T08:06:01.734Z,58.09
2022-11-27T08:08:28.818Z,58.17
2022-11-27T08:10:55.861Z,58.02
2022-11-27T08:13:22.912Z,58.12
2022-11-27T08:15:49.953Z,58.11
2022-11-27T08:18:16.981Z,58.03
2022-11-27T08:20:43.990Z,58.05
2022-11-27T08:23:11.103Z,58.11
2022-11-27T08:25:38.668Z,58.24
2022-11-27T08:28:05.619Z,58.21
2022-11-27T08:30:32.677Z,58.26
2022-11-27T08:32:59.809Z,58.28
2022-11-27T08:35:29.983Z,58.38
2022-11-27T08:37:58.516Z,58.33
2022-11-27T08:40:26.508Z,58.34
2022-11-27T08:42:55.439Z,58.12
2022-11-27T08:45:24.313Z,58.20
2022-11-27T08:47:52.552Z,58.28
2022-11-27T08:50:20.026Z,58.27
2022-11-27T08:52:47.674Z,58.28
2022-11-27T08:55:14.721Z,58.13
2022-11-27T08:57:41.775Z,58.19
2022-11-27T09:00:09.738Z,58.11
2022-11-27T09:02:36.947Z,58.26
2022-11-27T09:05:06.141Z,58.30
2022-11-27T09:07:33.189Z,58.30
2022-11-27T09:10:00.193Z,58.36
2022-11-27T09:12:27.725Z,58.59
2022-11-27T09:14:54.811Z,58.39
2022-11-27T09:17:21.828Z,58.42
2022-11-27T09:19:48.840Z,58.32
2022-11-27T09:22:16.088Z,58.31
2022-11-27T09:24:43.385Z,58.20
2022-11-27T09:27:10.613Z,58.38
2022-11-27T09:29:37.619Z,58.23
2022-11-27T09:32:05.131Z,58.36
2022-11-27T09:34:37.250Z,58.26
2022-11-27T09:37:05.366Z,58.30
2022-11-27T09:39:34.197Z,58.23
2022-11-27T09:42:04.727Z,58.20
2022-11-27T09:45:06.702Z,58.26
2022-11-27T09:47:44.224Z,58.16
2022-11-27T09:50:26.163Z,58.22
2022-11-27T09:53:14.463Z,58.38
2022-11-27T09:55:48.994Z,58.57
2022-11-27T09:58:21.554Z,58.70
2022-11-27T10:00:48.734Z,58.62
2022-11-27T10:03:26.553Z,58.75
2022-11-27T10:06:24.292Z,58.96
2022-11-27T10:09:13.032Z,59.26
2022-11-27T10:11:52.400Z,59.35
2022-11-27T10:14:34.123Z,59.51
2022-11-27T10:17:17.207Z,59.51
2022-11-27T10:20:12.603Z,59.74
2022-11-27T10:23:01.762Z,59.81
2022-11-27T10:25:47.448Z,59.69
2022-11-27T10:28:23.327Z,59.86
2022-11-27T10:30:56.081Z,59.92
2022-11-27T10:33:31.122Z,59.93
2022-11-27T10:36:00.910Z,60.28
2022-11-27T10:38:32.998Z,60.61
2022-11-27T10:41:47.731Z,60.75
2022-11-27T10:44:32.870Z,60.58
2022-11-27T10:47:07.783Z,60.51
2022-11-27T10:49:38.933Z,60.45
2022-11-27T10:52:06.592Z,60.44
2022-11-27T10:54:39.033Z,60.41
2022-11-27T10:57:18.543Z,60.54
2022-11-27T10:59:59.186Z,60.53
2022-11-27T11:02:39.163Z,60.50
2022-11-27T11:05:37.260Z,60.68
2022-11-27T11:08:05.292Z,60.71
2022-11-27T11:10:35.981Z,60.64
2022-11-27T11:13:12.002Z,60.59
2022-11-27T11:16:06.064Z,60.75
2022-11-27T11:18:35.829Z,60.78
2022-11-27T11:21:07.356Z,60.72
2022-11-27T11:23:37.412Z,60.64
2022-11-27T11:26:28.660Z,60.81
2022-11-27T11:28:59.022Z,60.65
2022-11-27T11:31:37.728Z,60.76
2022-11-27T11:34:22.825Z,61.22
2022-11-27T11:36:59.009Z,61.20
2022-11-27T11:39:28.597Z,61.22
2022-11-27T11:41:56.650Z,61.19
2022-11-27T11:44:32.474Z,61.13
2022-11-27T11:46:59.400Z,61.11
2022-11-27T11:49:28.281Z,60.91
2022-11-27T11:52:11.979Z,60.73
2022-11-27T11:54:46.996Z,60.55
2022-11-27T11:57:32.733Z,60.50
2022-11-27T12:00:13.059Z,60.37
2022-11-27T12:03:04.833Z,60.32
2022-11-27T12:05:40.926Z,60.22
2022-11-27T12:08:25.724Z,60.10
2022-11-27T12:11:06.189Z,60.01
2022-11-27T12:14:07.774Z,60.01
2022-11-27T12:17:22.511Z,59.75
2022-11-27T12:20:15.395Z,59.78
2022-11-27T12:23:09.467Z,59.82
2022-11-27T12:25:44.285Z,59.71
2022-11-27T12:28:39.319Z,59.70
2022-11-27T12:31:52.357Z,59.61
2022-11-27T12:34:43.781Z,59.60
2022-11-27T12:37:14.402Z,59.56
2022-11-27T12:40:18.890Z,59.56
2022-11-27T12:43:02.358Z,59.54
2022-11-27T12:45:53.924Z,59.46
2022-11-27T12:48:31.671Z,59.49
2022-11-27T12:51:08.111Z,59.58
2022-11-27T12:54:01.463Z,59.43
2022-11-27T12:56:35.794Z,59.55
2022-11-27T12:59:12.269Z,59.38
2022-11-27T13:02:14.511Z,59.54
2022-11-27T13:04:54.748Z,59.46
2022-11-27T13:07:49.092Z,59.55
2022-11-27T13:10:26.907Z,59.45
2022-11-27T13:13:06.774Z,59.46
2022-11-27T13:15:50.782Z,59.51
2022-11-27T13:18:17.899Z,59.52
2022-11-27T13:20:50.894Z,59.57
2022-11-27T13:23:20.847Z,59.59
2022-11-27T13:25:54.504Z,59.66
2022-11-27T13:28:25.062Z,59.68
2022-11-27T13:30:54.615Z,59.69
2022-11-27T13:33:54.811Z,59.62
2022-11-27T13:36:30.031Z,59.61
2022-11-27T13:39:01.705Z,59.56
2022-11-27T13:41:35.942Z,59.55
2022-11-27T13:44:08.875Z,59.54
2022-11-27T13:46:48.647Z,59.58
2022-11-27T13:49:26.754Z,59.57
2022-11-27T13:52:09.959Z,59.56
2022-11-27T13:54:37.036Z,59.48
2022-11-27T13:57:17.740Z,59.63
2022-11-27T14:00:05.909Z,59.62
2022-11-27T14:02:47.112Z,59.56
2022-11-27T14:05:17.406Z,59.65
2022-11-27T14:07:55.337Z,59.70
2022-11-27T14:10:26.448Z,59.66
2022-11-27T14:13:04.745Z,59.72
2022-11-27T14:15:35.628Z,59.62
2022-11-27T14:18:05.592Z,59.55
2022-11-27T14:20:37.784Z,59.53
2022-11-27T14:23:12.489Z,59.60
2022-11-27T14:25:41.699Z,59.60
2022-11-27T14:28:17.018Z,59.56
2022-11-27T14:30:49.248Z,59.54
2022-11-27T14:33:22.910Z,59.37
2022-11-27T14:35:55.760Z,59.47
2022-11-27T14:38:24.534Z,59.61
2022-11-27T14:40:55.811Z,59.55
2022-11-27T14:43:26.342Z,59.55
2022-11-27T14:45:59.144Z,59.58
2022-11-27T14:48:29.179Z,59.49
2022-11-27T14:50:58.017Z,59.56
2022-11-27T14:53:27.457Z,59.56
2022-11-27T14:55:58.152Z,59.52
2022-11-27T14:58:27.354Z,59.47
2022-11-27T15:01:03.954Z,59.55
2022-11-27T15:03:31.208Z,59.52
2022-11-27T15:06:00.545Z,59.52
2022-11-27T15:08:30.185Z,59.50
2022-11-27T15:10:59.013Z,59.44
2022-11-27T15:13:34.862Z,59.38
2022-11-27T15:16:04.900Z,59.45
2022-11-27T15:18:36.181Z,59.49
2022-11-27T15:21:10.586Z,59.45
2022-11-27T15:23:38.700Z,59.25
2022-11-27T15:26:15.180Z,59.22
2022-11-27T15:28:54.901Z,59.38
2022-11-27T15:31:34.612Z,59.46
2022-11-27T15:34:25.033Z,59.38
2022-11-27T15:36:58.633Z,59.31
2022-11-27T15:39:46.575Z,59.20
2022-11-27T15:42:14.789Z,59.29
2022-11-27T15:44:42.354Z,59.05
2022-11-27T15:47:26.781Z,59.16
2022-11-27T15:49:54.295Z,59.13
2022-11-27T15:52:22.169Z,59.18
2022-11-27T15:54:50.538Z,59.10
2022-11-27T15:57:17.980Z,59.19
2022-11-27T15:59:45.398Z,58.99
2022-11-27T16:02:17.490Z,59.11
2022-11-27T16:04:45.241Z,59.05
2022-11-27T16:07:12.277Z,59.14
2022-11-27T16:09:40.040Z,59.06
2022-11-27T16:12:07.437Z,59.08
2022-11-27T16:14:34.596Z,59.01
2022-11-27T16:17:01.997Z,59.03
2022-11-27T16:19:30.342Z,59.00
2022-11-27T16:21:57.430Z,59.14
2022-11-27T16:24:24.734Z,59.11
2022-11-27T16:26:51.728Z,58.98
2022-11-27T16:29:18.874Z,58.97
2022-11-27T16:31:46.396Z,59.09
2022-11-27T16:34:15.839Z,58.88
2022-11-27T16:36:43.987Z,58.80
2022-11-27T16:39:12.327Z,58.95
2022-11-27T16:41:39.908Z,58.94
2022-11-27T16:44:13.742Z,59.01
2022-11-27T16:46:43.924Z,58.91
2022-11-27T16:49:12.093Z,58.95
2022-11-27T16:51:40.601Z,58.83
2022-11-27T16:54:12.197Z,58.90
2022-11-27T16:56:41.666Z,58.86
2022-11-27T16:59:12.393Z,58.75
2022-11-27T17:01:41.819Z,58.82
2022-11-27T17:04:14.889Z,58.74
2022-11-27T17:06:41.896Z,58.81
2022-11-27T17:09:09.244Z,58.59
2022-11-27T17:11:38.097Z,58.58
2022-11-27T17:14:07.572Z,58.59
2022-11-27T17:16:36.494Z,58.66
2022-11-27T17:19:04.692Z,58.45
2022-11-27T17:21:34.172Z,58.58
2022-11-27T17:24:04.011Z,58.40
2022-11-27T17:26:38.785Z,58.38
2022-11-27T17:29:05.788Z,58.38
2022-11-27T17:31:35.615Z,58.31
2022-11-27T17:34:04.865Z,58.46
2022-11-27T17:36:37.237Z,58.37
2022-11-27T17:39:06.665Z,58.37
2022-11-27T17:41:34.092Z,58.36
2022-11-27T17:44:05.006Z,58.42
2022-11-27T17:46:32.711Z,58.42
2022-11-27T17:49:01.960Z,58.48
2022-11-27T17:51:31.760Z,58.37
2022-11-27T17:54:01.458Z,58.42
2022-11-27T17:56:32.462Z,58.36
2022-11-27T17:59:00.217Z,58.31
2022-11-27T18:01:30.288Z,58.34
2022-11-27T18:04:00.711Z,58.11
2022-11-27T18:06:33.075Z,58.38
2022-11-27T18:09:00.569Z,58.52
2022-11-27T18:11:31.840Z,58.25
2022-11-27T18:14:00.504Z,58.32
2022-11-27T18:16:31.932Z,58.38
2022-11-27T18:19:00.183Z,58.28
2022-11-27T18:21:28.748Z,58.34
2022-11-27T18:29:30.817Z,58.33
2022-11-27T18:31:57.833Z,58.39
2022-11-27T18:34:24.795Z,58.34
2022-11-27T18:36:51.814Z,58.22
2022-11-27T18:39:18.689Z,58.28
2022-11-27T18:41:45.632Z,58.42
2022-11-27T18:44:14.139Z,58.35
2022-11-27T18:46:41.113Z,58.23
2022-11-27T18:49:08.643Z,58.21
2022-11-27T18:51:35.703Z,58.35
2022-11-27T18:54:02.874Z,58.27
2022-11-27T18:56:32.194Z,58.26
2022-11-27T18:59:05.123Z,58.28
2022-11-27T19:01:41.479Z,58.53
2022-11-27T19:04:09.941Z,58.43
2022-11-27T19:06:37.675Z,58.43
2022-11-27T19:09:06.282Z,58.27
2022-11-27T19:11:35.079Z,58.35
2022-11-27T19:14:05.279Z,58.40
2022-11-27T19:16:46.572Z,58.40
2022-11-27T19:22:07.415Z,58.38
2022-11-27T19:24:34.556Z,58.41
2022-11-27T19:27:01.586Z,58.33
2022-11-27T19:29:28.526Z,58.41
2022-11-27T19:31:57.820Z,58.34
2022-11-27T19:34:24.805Z,58.34
2022-11-27T19:36:53.055Z,58.32
2022-11-27T19:39:20.253Z,58.50
2022-11-27T19:41:48.847Z,58.40
2022-11-27T19:44:17.572Z,58.37
2022-11-27T19:46:46.583Z,58.24
2022-11-27T19:49:17.035Z,58.28
2022-11-27T19:51:45.244Z,58.26
2022-11-27T19:54:14.001Z,58.18
2022-11-27T19:56:42.645Z,58.10
2022-11-27T19:59:12.765Z,58.25
2022-11-27T20:01:41.541Z,58.32
2022-11-27T20:04:10.925Z,58.32
2022-11-27T20:06:39.018Z,58.27
2022-11-27T20:09:06.509Z,58.30
2022-11-27T20:11:35.650Z,58.21
2022-11-27T20:14:06.665Z,58.15
2022-11-27T20:16:36.492Z,58.22
2022-11-27T20:19:06.860Z,58.19
2022-11-27T20:21:36.778Z,58.18
2022-11-27T20:24:04.262Z,58.05
2022-11-27T20:26:37.149Z,58.06
2022-11-27T20:29:07.470Z,58.14
2022-11-27T20:31:37.738Z,58.13
2022-11-27T20:34:06.168Z,58.14
2022-11-27T20:36:39.482Z,58.20
2022-11-27T20:39:07.302Z,58.09
2022-11-27T20:41:34.428Z,58.15
2022-11-27T20:44:02.446Z,58.07
2022-11-27T20:46:31.294Z,58.10
2022-11-27T20:48:59.441Z,58.11
2022-11-27T20:51:30.991Z,58.01
2022-11-27T20:54:00.119Z,58.01
2022-11-27T20:56:28.278Z,58.02
2022-11-27T20:58:56.312Z,58.13
2022-11-27T21:01:31.049Z,57.94
2022-11-27T21:04:01.312Z,58.08
2022-11-27T21:06:31.089Z,58.05
2022-11-27T21:09:01.914Z,57.93
2022-11-27T21:11:32.405Z,58.10
2022-11-27T21:14:02.247Z,58.00
2022-11-27T21:16:32.596Z,57.97
2022-11-27T21:19:02.934Z,57.84
2022-11-27T21:21:30.792Z,57.89
2022-11-27T21:23:58.817Z,57.94
2022-11-27T21:26:26.362Z,57.76
2022-11-27T21:28:53.543Z,57.84
2022-11-27T21:31:24.340Z,57.86
2022-11-27T21:33:56.864Z,57.90
2022-11-27T21:36:29.055Z,57.90
2022-11-27T21:39:00.766Z,57.84
2022-11-27T21:41:29.715Z,57.79
2022-11-27T21:43:59.490Z,57.86
2022-11-27T21:46:28.361Z,58.01
2022-11-27T21:48:58.689Z,57.89
2022-11-27T21:51:29.202Z,57.86
2022-11-27T21:53:58.124Z,57.80
2022-11-27T21:56:27.257Z,57.83
2022-11-27T21:58:54.402Z,57.71
2022-11-27T22:01:24.738Z,57.79
2022-11-27T22:03:54.244Z,57.69
2022-11-27T22:06:22.503Z,57.62
2022-11-27T22:08:51.033Z,57.64
2022-11-27T22:11:21.678Z,57.71
2022-11-27T22:13:49.872Z,57.64
2022-11-27T22:16:20.130Z,57.63
2022-11-27T22:18:48.592Z,57.60
2022-11-27T22:21:16.755Z,57.56
2022-11-27T22:23:44.121Z,57.52
2022-11-27T22:26:18.850Z,57.46
2022-11-27T22:28:48.233Z,57.35
2022-11-27T22:31:21.942Z,57.37
2022-11-27T22:33:49.398Z,57.42
2022-11-27T22:36:21.330Z,57.41
2022-11-27T22:38:50.794Z,57.37
2022-11-27T22:41:23.111Z,57.30
2022-11-27T22:43:50.243Z,57.30
2022-11-27T22:46:28.181Z,57.43
2022-11-27T22:48:58.428Z,57.36
2022-11-27T22:51:27.943Z,57.51
2022-11-27T22:53:55.015Z,57.44
2022-11-27T22:56:22.089Z,57.51
2022-11-27T22:58:52.854Z,57.38
2022-11-27T23:01:30.511Z,57.38
2022-11-27T23:04:01.344Z,57.33
2022-11-27T23:06:28.879Z,57.43
2022-11-27T23:08:56.200Z,57.38
2022-11-27T23:11:26.456Z,57.43
2022-11-27T23:14:00.154Z,57.40
2022-11-27T23:16:27.684Z,57.52
2022-11-27T23:18:55.028Z,57.30
2022-11-27T23:21:24.072Z,57.36
2022-11-27T23:23:51.982Z,57.34
2022-11-27T23:26:25.280Z,57.43
2022-11-27T23:28:53.898Z,57.32
2022-11-27T23:31:31.999Z,57.40
2022-11-27T23:34:01.934Z,57.37
2022-11-27T23:36:30.575Z,57.40
2022-11-27T23:39:03.425Z,57.30
2022-11-27T23:41:31.331Z,57.34
2022-11-27T23:43:58.699Z,57.48
2022-11-27T23:46:28.351Z,57.29
2022-11-27T23:48:57.057Z,57.36
2022-11-27T23:51:29.378Z,57.49
2022-11-27T23:53:56.551Z,57.50
2022-11-27T23:56:26.694Z,57.35
2022-11-27T23:58:55.623Z,57.32
